createdAt,value
2022-11-28T00:01:08.550Z,4.29
2022-11-28T00:04:12.510Z,4.29
2022-11-28T00:07:15.838Z,4.27
2022-11-28T00:10:22.109Z,4.27
2022-11-28T00:13:25.124Z,4.31
2022-11-28T00:16:29.862Z,4.32
2022-11-28T00:19:33.158Z,4.33
2022-11-28T00:22:35.992Z,4.32
2022-11-28T00:25:38.972Z,4.34
2022-11-28T00:28:42.352Z,4.39
2022-11-28T00:31:45.147Z,4.39
2022-11-28T00:34:48.173Z,4.41
2022-11-28T00:37:51.004Z,4.44
2022-11-28T00:41:10.033Z,4.44
2022-11-28T00:44:13.372Z,4.45
2022-11-28T00:47:18.036Z,4.46
2022-11-28T00:50:22.533Z,4.44
2022-11-28T00:53:26.578Z,4.44
2022-11-28T00:56:33.470Z,4.44
2022-11-28T00:59:36.600Z,4.43
2022-11-28T01:02:39.967Z,4.46
2022-11-28T01:05:43.773Z,4.47
2022-11-28T01:08:46.489Z,4.46
2022-11-28T01:11:51.310Z,4.52
2022-11-28T01:14:53.957Z,4.57
2022-11-28T01:17:56.828Z,4.54
2022-11-28T01:20:59.354Z,4.56
2022-11-28T01:24:02.037Z,4.58
2022-11-28T01:27:05.364Z,4.61
2022-11-28T01:30:09.360Z,4.55
2022-11-28T01:33:14.371Z,4.52
2022-11-28T01:36:18.780Z,4.56
2022-11-28T01:39:21.246Z,4.59
2022-11-28T01:42:24.240Z,4.54
2022-11-28T01:45:35.015Z,4.52
2022-11-28T01:48:42.985Z,4.47
2022-11-28T01:51:48.953Z,4.44
2022-11-28T01:54:57.758Z,4.38
2022-11-28T01:58:01.761Z,4.35
2022-11-28T02:01:06.727Z,4.33
2022-11-28T02:04:10.100Z,4.31
2022-11-28T02:07:13.722Z,4.36
2022-11-28T02:10:23.411Z,4.37
2022-11-28T02:13:54.695Z,4.33
2022-11-28T02:17:06.496Z,4.38
2022-11-28T02:20:35.385Z,4.39
2022-11-28T02:24:01.928Z,4.36
2022-11-28T02:27:15.660Z,4.35
2022-11-28T02:30:38.367Z,4.33
2022-11-28T02:34:04.945Z,4.36
2022-11-28T02:37:17.040Z,4.36
2022-11-28T02:40:24.867Z,4.34
2022-11-28T02:43:42.490Z,4.31
2022-11-28T02:47:03.367Z,4.30
2022-11-28T02:50:31.802Z,4.28
2022-11-28T02:53:36.504Z,4.29
2022-11-28T02:56:46.475Z,4.27
2022-11-28T02:59:50.820Z,4.26
2022-11-28T03:03:22.268Z,4.28
2022-11-28T03:06:42.782Z,4.29
2022-11-28T03:10:16.683Z,4.27
2022-11-28T03:13:29.642Z,4.24
2022-11-28T03:16:44.881Z,4.27
2022-11-28T03:19:56.837Z,4.28
2022-11-28T03:23:03.313Z,4.28
2022-11-28T03:26:23.665Z,4.24
2022-11-28T03:29:37.043Z,4.24
2022-11-28T03:32:42.282Z,4.25
2022-11-28T03:35:51.597Z,4.24
2022-11-28T03:39:02.539Z,4.22
2022-11-28T03:42:18.846Z,4.21
2022-11-28T03:45:25.837Z,4.19
2022-11-28T03:48:35.867Z,4.17
2022-11-28T03:51:46.684Z,4.17
2022-11-28T03:55:01.125Z,4.11
2022-11-28T03:58:14.986Z,4.08
2022-11-28T04:01:30.891Z,4.07
2022-11-28T04:04:33.810Z,3.99
2022-11-28T04:07:53.881Z,3.97
2022-11-28T04:11:21.299Z,4.01
2022-11-28T04:14:31.765Z,3.99
2022-11-28T04:17:44.573Z,4.00
2022-11-28T04:21:06.185Z,3.96
2022-11-28T04:24:17.972Z,3.89
2022-11-28T04:27:27.348Z,3.90
2022-11-28T04:30:33.135Z,3.88
2022-11-28T04:33:40.924Z,3.87
2022-11-28T04:36:45.317Z,3.86
2022-11-28T04:39:50.146Z,3.87
2022-11-28T04:43:04.590Z,3.86
2022-11-28T04:46:17.658Z,3.83
2022-11-28T04:49:23.869Z,3.82
2022-11-28T04:52:38.934Z,3.79
2022-11-28T04:55:48.777Z,3.82
2022-11-28T04:58:51.570Z,3.81
2022-11-28T05:02:03.033Z,3.81
2022-11-28T05:05:15.419Z,3.79
2022-11-28T05:08:21.028Z,3.81
2022-11-28T05:11:25.539Z,3.78
2022-11-28T05:14:29.228Z,3.86
2022-11-28T05:17:35.660Z,3.83
2022-11-28T05:20:43.975Z,3.83
2022-11-28T05:23:46.872Z,3.81
2022-11-28T05:26:51.305Z,3.77
2022-11-28T05:29:54.403Z,3.75
2022-11-28T05:33:01.920Z,3.77
2022-11-28T05:36:12.609Z,3.78
2022-11-28T05:39:17.187Z,3.82
2022-11-28T05:42:20.978Z,3.76
2022-11-28T05:45:24.500Z,3.78
2022-11-28T05:48:27.613Z,3.82
2022-11-28T05:51:31.699Z,3.82
2022-11-28T05:54:37.244Z,3.81
2022-11-28T05:57:44.421Z,3.83
2022-11-28T06:00:57.546Z,3.83
2022-11-28T06:04:03.066Z,3.83
2022-11-28T06:07:05.809Z,3.85
2022-11-28T06:10:10.684Z,3.84
2022-11-28T06:13:17.103Z,3.82
2022-11-28T06:16:28.199Z,3.77
2022-11-28T06:19:33.003Z,3.80
2022-11-28T06:22:37.609Z,3.82
2022-11-28T06:25:40.611Z,3.83
2022-11-28T06:28:44.014Z,3.82
2022-11-28T06:31:48.032Z,3.85
2022-11-28T06:34:50.973Z,3.83
2022-11-28T06:37:58.187Z,3.89
2022-11-28T06:41:06.849Z,3.87
2022-11-28T06:44:14.153Z,3.85
2022-11-28T06:47:17.005Z,3.85
2022-11-28T06:50:19.793Z,3.86
2022-11-28T06:53:26.130Z,3.87
2022-11-28T06:56:44.017Z,3.88
2022-11-28T06:59:49.431Z,3.90
2022-11-28T07:02:54.314Z,3.92
2022-11-28T07:06:00.879Z,3.90
2022-11-28T07:09:05.119Z,3.89
2022-11-28T07:12:09.092Z,3.90
2022-11-28T07:15:12.986Z,3.90
2022-11-28T07:18:16.077Z,3.89
2022-11-28T07:21:24.403Z,3.79
2022-11-28T07:24:30.136Z,3.75
2022-11-28T07:27:33.887Z,3.70
2022-11-28T07:30:37.885Z,3.70
2022-11-28T07:33:43.062Z,3.69
2022-11-28T07:36:46.827Z,3.65
2022-11-28T07:39:49.821Z,3.65
2022-11-28T07:42:57.021Z,3.63
2022-11-28T07:46:01.544Z,3.62
2022-11-28T07:49:05.911Z,3.56
2022-11-28T07:52:08.838Z,3.56
2022-11-28T07:55:13.039Z,3.57
2022-11-28T07:58:15.768Z,3.61
2022-11-28T08:01:31.822Z,3.47
2022-11-28T08:04:35.309Z,3.51
2022-11-28T08:07:39.597Z,3.56
2022-11-28T08:10:44.244Z,3.56
2022-11-28T08:13:49.297Z,3.58
2022-11-28T08:16:53.264Z,3.62
2022-11-28T08:19:57.647Z,3.66
2022-11-28T08:23:01.910Z,3.73
2022-11-28T08:26:09.463Z,3.85
2022-11-28T08:29:16.913Z,3.81
2022-11-28T08:32:22.146Z,3.82
2022-11-28T08:35:26.073Z,3.88
2022-11-28T08:38:32.847Z,3.99
2022-11-28T08:41:37.944Z,3.99
2022-11-28T08:44:40.721Z,4.03
2022-11-28T08:47:44.755Z,4.07
2022-11-28T08:50:50.894Z,4.05
2022-11-28T08:54:02.789Z,4.00
2022-11-28T08:57:07.541Z,3.97
2022-11-28T09:00:13.059Z,3.88
2022-11-28T09:03:18.885Z,3.90
2022-11-28T09:06:27.312Z,3.79
2022-11-28T09:09:32.793Z,3.70
2022-11-28T09:12:37.899Z,3.65
2022-11-28T09:15:43.929Z,3.74
2022-11-28T09:18:47.008Z,3.73
2022-11-28T09:21:54.607Z,3.73
2022-11-28T09:25:03.014Z,3.86
2022-11-28T09:28:07.615Z,3.87
2022-11-28T09:31:13.435Z,3.79
2022-11-28T09:34:16.556Z,3.79
2022-11-28T09:37:21.426Z,3.78
2022-11-28T09:40:43.462Z,3.84
2022-11-28T09:43:52.026Z,3.85
2022-11-28T09:47:01.685Z,3.76
2022-11-28T09:50:21.409Z,3.79
2022-11-28T09:53:58.028Z,3.78
2022-11-28T09:57:03.985Z,3.79
2022-11-28T10:00:29.509Z,3.89
2022-11-28T10:03:48.998Z,3.85
2022-11-28T10:06:55.884Z,3.96
2022-11-28T10:10:27.453Z,3.92
2022-11-28T10:14:14.526Z,4.03
2022-11-28T10:18:00.813Z,4.20
2022-11-28T10:21:18.364Z,4.07
2022-11-28T10:24:30.956Z,4.17
2022-11-28T10:27:35.877Z,4.08
2022-11-28T10:30:49.221Z,4.13
2022-11-28T10:34:00.029Z,4.14
2022-11-28T10:37:26.376Z,4.21
2022-11-28T10:40:42.449Z,4.16
2022-11-28T10:43:52.131Z,4.31
2022-11-28T10:47:06.167Z,4.35
2022-11-28T10:50:20.830Z,4.24
2022-11-28T10:54:18.637Z,4.24
2022-11-28T10:58:00.926Z,4.24
2022-11-28T11:01:04.911Z,4.32
2022-11-28T11:04:26.675Z,4.44
2022-11-28T11:07:31.784Z,4.45
2022-11-28T11:10:50.799Z,4.35
2022-11-28T11:13:58.598Z,4.41
2022-11-28T11:17:06.962Z,4.54
2022-11-28T11:20:41.184Z,4.48
2022-11-28T11:23:46.103Z,4.55
2022-11-28T11:26:49.191Z,4.45
2022-11-28T11:29:54.393Z,4.53
2022-11-28T11:33:00.993Z,4.66
2022-11-28T11:36:07.246Z,4.57
2022-11-28T11:39:14.096Z,4.44
2022-11-28T11:42:31.807Z,4.50
2022-11-28T11:45:35.534Z,4.41
2022-11-28T11:49:01.038Z,4.47
2022-11-28T11:52:32.884Z,4.56
2022-11-28T11:55:55.861Z,4.53
2022-11-28T11:59:03.981Z,4.60
2022-11-28T12:02:35.609Z,4.60
2022-11-28T12:06:12.592Z,4.56
2022-11-28T12:09:41.084Z,4.57
2022-11-28T12:12:49.160Z,4.58
2022-11-28T12:15:55.765Z,4.57
2022-11-28T12:19:11.009Z,4.60
2022-11-28T12:22:33.810Z,4.65
2022-11-28T12:25:50.397Z,4.64
2022-11-28T12:32:53.321Z,4.72
2022-11-28T12:36:09.804Z,4.77
2022-11-28T12:39:22.835Z,4.73
2022-11-28T12:42:43.859Z,4.63
2022-11-28T12:46:04.387Z,4.68
2022-11-28T12:49:22.778Z,4.59
2022-11-28T12:52:54.153Z,4.62
2022-11-28T12:56:17.180Z,4.60
2022-11-28T12:59:27.107Z,4.57
2022-11-28T13:02:36.237Z,4.59
2022-11-28T13:06:14.746Z,4.62
2022-11-28T13:09:21.220Z,4.64
2022-11-28T13:12:37.795Z,4.72
2022-11-28T13:16:09.923Z,4.68
2022-11-28T13:19:45.814Z,4.75
2022-11-28T13:22:55.795Z,4.70
2022-11-28T13:26:11.342Z,4.65
2022-11-28T13:29:37.916Z,4.70
2022-11-28T13:33:07.870Z,4.69
2022-11-28T13:39:55.077Z,4.68
2022-11-28T13:43:14.104Z,4.70
2022-11-28T13:46:23.100Z,4.66
2022-11-28T13:49:30.327Z,4.58
2022-11-28T13:52:43.164Z,4.55
2022-11-28T13:55:53.299Z,4.52
2022-11-28T13:59:07.167Z,4.53
2022-11-28T14:02:47.921Z,4.52
2022-11-28T14:05:59.187Z,4.39
2022-11-28T14:09:09.177Z,4.34
2022-11-28T14:12:34.081Z,4.26
2022-11-28T14:16:09.254Z,4.21
2022-11-28T14:19:31.307Z,4.11
2022-11-28T14:23:16.046Z,4.00
2022-11-28T14:26:34.203Z,3.97
2022-11-28T14:29:41.876Z,3.90
2022-11-28T14:32:48.821Z,3.88
2022-11-28T14:35:53.304Z,3.81
2022-11-28T14:39:16.540Z,3.82
2022-11-28T14:42:51.877Z,3.74
2022-11-28T14:45:51.977Z,3.75
2022-11-28T14:48:59.118Z,3.58
2022-11-28T14:55:43.505Z,3.40
2022-11-28T14:59:04.819Z,3.34
2022-11-28T15:02:12.344Z,3.25
2022-11-28T15:05:22.839Z,3.17
2022-11-28T15:08:48.855Z,3.14
2022-11-28T15:12:20.745Z,3.04
2022-11-28T15:15:24.902Z,2.96
2022-11-28T15:18:31.107Z,2.93
2022-11-28T15:21:47.844Z,2.83
2022-11-28T15:24:55.631Z,2.77
2022-11-28T15:28:20.676Z,2.70
2022-11-28T15:31:28.848Z,2.67
2022-11-28T15:34:36.129Z,2.60
2022-11-28T15:38:01.789Z,2.53
2022-11-28T15:41:14.883Z,2.47
2022-11-28T15:44:29.157Z,2.38
2022-11-28T15:47:35.046Z,2.36
2022-11-28T15:50:50.806Z,2.28
2022-11-28T15:53:55.138Z,2.25
2022-11-28T15:57:00.509Z,2.17
2022-11-28T16:00:26.844Z,2.14
2022-11-28T16:03:57.818Z,2.10
2022-11-28T16:07:07.186Z,2.06
2022-11-28T16:10:27.962Z,2.03
2022-11-28T16:13:34.254Z,2.06
2022-11-28T16:16:39.876Z,2.06
2022-11-28T16:19:47.865Z,2.05
2022-11-28T16:23:10.846Z,1.99
2022-11-28T16:26:41.947Z,1.91
2022-11-28T16:29:50.033Z,1.87
2022-11-28T16:32:55.693Z,1.80
2022-11-28T16:36:31.270Z,1.73
2022-11-28T16:39:36.856Z,1.65
2022-11-28T16:42:41.965Z,1.62
2022-11-28T16:45:59.837Z,1.56
2022-11-28T16:49:09.313Z,1.50
2022-11-28T16:52:27.971Z,1.47
2022-11-28T16:55:39.356Z,1.40
2022-11-28T16:58:51.136Z,1.34
2022-11-28T17:02:13.986Z,1.31
2022-11-28T17:05:20.791Z,1.30
2022-11-28T17:08:30.251Z,1.26
2022-11-28T17:12:08.829Z,1.21
2022-11-28T17:15:29.764Z,1.19
2022-11-28T17:18:38.374Z,1.17
2022-11-28T17:21:52.089Z,1.11
2022-11-28T17:25:01.047Z,1.08
2022-11-28T17:28:17.301Z,1.03
2022-11-28T17:31:29.754Z,1.02
2022-11-28T17:34:38.850Z,0.99
2022-11-28T17:37:43.766Z,0.96
2022-11-28T17:40:57.009Z,0.93
2022-11-28T17:44:07.873Z,0.95
2022-11-28T17:47:11.188Z,0.91
2022-11-28T17:50:20.803Z,0.86
2022-11-28T17:53:31.780Z,0.81
2022-11-28T17:56:34.690Z,0.79
2022-11-28T17:59:43.032Z,0.75
2022-11-28T18:02:51.578Z,0.71
2022-11-28T18:05:58.989Z,0.68
2022-11-28T18:09:11.631Z,0.66
2022-11-28T18:12:19.799Z,0.66
2022-11-28T18:15:31.909Z,0.60
2022-11-28T18:18:36.487Z,0.60
2022-11-28T18:21:50.800Z,0.54
2022-11-28T18:25:08.826Z,0.55
2022-11-28T18:28:18.836Z,0.49
2022-11-28T18:31:26.875Z,0.43
2022-11-28T18:34:39.902Z,0.40
2022-11-28T18:37:50.854Z,0.35
2022-11-28T18:40:56.145Z,0.34
2022-11-28T18:44:03.562Z,0.31
2022-11-28T18:47:14.082Z,0.28
2022-11-28T18:50:30.683Z,0.24
2022-11-28T18:53:46.711Z,0.23
2022-11-28T18:56:55.772Z,0.23
2022-11-28T19:00:08.934Z,0.18
2022-11-28T19:03:20.159Z,0.20
2022-11-28T19:06:33.680Z,0.22
2022-11-28T19:09:42.030Z,0.20
2022-11-28T19:12:58.315Z,0.23
2022-11-28T19:16:10.819Z,0.22
2022-11-28T19:19:15.196Z,0.19
2022-11-28T19:22:29.682Z,0.20
2022-11-28T19:25:38.226Z,0.20
2022-11-28T19:29:02.553Z,0.18
2022-11-28T19:32:12.711Z,0.19
2022-11-28T19:35:17.826Z,0.24
2022-11-28T19:38:23.665Z,0.31
2022-11-28T19:41:35.801Z,0.37
2022-11-28T19:44:41.062Z,0.40
2022-11-28T19:47:49.793Z,0.43
2022-11-28T19:51:00.817Z,0.48
2022-11-28T19:54:07.447Z,0.47
2022-11-28T19:57:13.807Z,0.48
2022-11-28T20:00:22.816Z,0.49
2022-11-28T20:03:35.442Z,0.46
2022-11-28T20:06:40.835Z,0.43
2022-11-28T20:09:48.810Z,0.42
2022-11-28T20:12:54.379Z,0.37
2022-11-28T20:16:03.315Z,0.34
2022-11-28T20:19:11.740Z,0.32
2022-11-28T20:22:20.680Z,0.24
2022-11-28T20:25:29.787Z,0.23
2022-11-28T20:28:41.893Z,0.20
2022-11-28T20:31:54.791Z,0.16
2022-11-28T20:35:10.939Z,0.13
2022-11-28T20:38:16.949Z,0.11
2022-11-28T20:41:30.929Z,0.07
2022-11-28T20:44:35.770Z,0.09
2022-11-28T20:47:49.994Z,0.11
2022-11-28T20:50:54.325Z,0.17
2022-11-28T20:54:00.491Z,0.24
2022-11-28T20:57:21.771Z,0.30
2022-11-28T21:00:38.044Z,0.37
2022-11-28T21:03:41.069Z,0.39
2022-11-28T21:06:50.777Z,0.44
2022-11-28T21:10:00.114Z,0.50
2022-11-28T21:13:10.787Z,0.53
2022-11-28T21:16:17.572Z,0.56
2022-11-28T21:19:22.141Z,0.57
2022-11-28T21:22:27.782Z,0.63
2022-11-28T21:25:39.940Z,0.62
2022-11-28T21:28:45.003Z,0.63
2022-11-28T21:31:53.460Z,0.63
2022-11-28T21:35:02.572Z,0.62
2022-11-28T21:38:21.657Z,0.64
2022-11-28T21:41:34.017Z,0.69
2022-11-28T21:44:38.975Z,0.73
2022-11-28T21:47:43.047Z,0.75
2022-11-28T21:50:52.945Z,0.79
2022-11-28T21:53:59.243Z,0.78
2022-11-28T21:57:04.903Z,0.80
2022-11-28T22:00:31.571Z,0.86
2022-11-28T22:03:40.864Z,0.81
2022-11-28T22:06:43.660Z,0.82
2022-11-28T22:09:49.174Z,0.87
2022-11-28T22:12:53.655Z,0.87
2022-11-28T22:15:57.559Z,0.83
2022-11-28T22:19:03.724Z,0.80
2022-11-28T22:22:06.792Z,0.78
2022-11-28T22:25:10.543Z,0.72
2022-11-28T22:28:14.192Z,0.73
2022-11-28T22:31:18.570Z,0.70
2022-11-28T22:34:29.566Z,0.66
2022-11-28T22:37:32.944Z,0.64
2022-11-28T22:40:37.771Z,0.66
2022-11-28T22:43:45.819Z,0.64
2022-11-28T22:46:50.531Z,0.66
2022-11-28T22:49:54.061Z,0.68
2022-11-28T22:52:57.226Z,0.62
2022-11-28T22:56:17.783Z,0.48
2022-11-28T22:59:21.210Z,0.53
2022-11-28T23:02:24.170Z,0.50
2022-11-28T23:05:27.692Z,0.45
2022-11-28T23:08:30.190Z,0.43
2022-11-28T23:11:36.242Z,0.43
2022-11-28T23:14:40.144Z,0.43
2022-11-28T23:17:43.777Z,0.52
2022-11-28T23:20:46.173Z,0.52
2022-11-28T23:23:49.637Z,0.60
2022-11-28T23:26:53.058Z,0.54
2022-11-28T23:29:58.137Z,0.37
2022-11-28T23:33:01.107Z,0.33
2022-11-28T23:36:24.731Z,0.27
2022-11-28T23:39:27.800Z,0.25
2022-11-28T23:42:37.838Z,0.17
2022-11-28T23:45:40.591Z,0.25
2022-11-28T23:48:44.603Z,0.31
2022-11-28T23:51:47.096Z,0.36
2022-11-28T23:54:49.745Z,0.31
2022-11-28T23:57:52.369Z,0.34
